Terminal Aerodrome Forecast
Issued by NWS Sterling, VA

Current Version | Previous Version | Graphics & Text | Print | Product List | Glossary On
Versions: 1 2 3 4 5 6 7 8 9 10 11 12 13 14 15 16 17 18 19 20 21 22 23 24 25 26 27
000
FTUS41 KLWX 282115 AAA
TAFDCA
TAF AMD
KDCA 282115Z 2821/0118 14003KT P6SM SCT250
     FM010600 VRB04KT P6SM OVC050
     FM011300 VRB04KT 2SM -SN BKN008 OVC050
     FM011700 17004KT 2SM -FZRAPL BKN008 OVC050=

USA.gov is the U.S. government's official web portal to all federal, state and local government web resources and services.